Time;durP1;ratioP1;P1;durP2;ratioP2;P2;SDS_P1;SDS_P2;PMS_P1;PMS_P2;Temp;Humidity;BMP_temperature;BMP_pressure;BME280_temperature;BME280_humidity;BME280_pressure;Samples;Min_cycle;Max_cycle;Signal;HPM_P1;HPM_P2
2023/08/30 00:00:36;;;;;;;11.98;6.25;;;16.60;73.30;;;;;;9178883;19;20015;-67
2023/08/30 00:03:43;;;;;;;11.27;5.80;;;16.60;73.70;;;;;;9178652;19;20018;-67
2023/08/30 00:06:48;;;;;;;11.85;5.82;;;16.50;72.60;;;;;;9179278;19;20558;-66
2023/08/30 00:09:56;;;;;;;8.38;5.80;;;16.50;73.10;;;;;;9178363;19;20010;-67
2023/08/30 00:13:04;;;;;;;10.27;5.68;;;16.40;73.10;;;;;;9176810;19;20081;-68
2023/08/30 00:16:12;;;;;;;11.77;6.18;;;16.40;73.20;;;;;;9178107;19;20022;-66
2023/08/30 00:19:18;;;;;;;9.02;6.13;;;16.30;73.20;;;;;;9178472;19;20006;-65
2023/08/30 00:22:27;;;;;;;9.65;6.30;;;16.30;73.20;;;;;;9178675;19;20011;-68
2023/08/30 00:25:32;;;;;;;8.27;5.78;;;16.20;73.20;;;;;;9177459;19;20021;-65
2023/08/30 00:28:42;;;;;;;10.30;6.13;;;16.20;73.30;;;;;;9172301;19;20026;-68
2023/08/30 00:31:48;;;;;;;12.52;6.65;;;16.10;73.40;;;;;;9174939;19;20015;-67
2023/08/30 00:34:56;;;;;;;12.90;7.03;;;16.10;73.50;;;;;;9176977;19;20495;-66
2023/08/30 00:38:01;;;;;;;9.18;5.60;;;16.10;73.60;;;;;;9175588;19;20018;-66
2023/08/30 00:41:08;;;;;;;10.23;6.07;;;16.00;73.60;;;;;;9177603;19;20015;-67
2023/08/30 00:44:16;;;;;;;10.88;6.60;;;16.00;73.50;;;;;;9175878;19;20014;-68
2023/08/30 00:47:24;;;;;;;10.55;6.20;;;16.00;73.50;;;;;;9175232;19;20044;-66
2023/08/30 00:50:29;;;;;;;10.07;6.45;;;15.90;73.50;;;;;;9177681;19;20466;-68
2023/08/30 00:53:37;;;;;;;10.35;6.63;;;15.90;73.50;;;;;;9175159;19;20281;-65
2023/08/30 00:56:42;;;;;;;10.00;6.53;;;15.80;73.60;;;;;;9176993;19;20034;-66
2023/08/30 00:59:55;;;;;;;16.90;6.97;;;15.80;73.60;;;;;;9177216;19;20024;-64
2023/08/30 01:03:01;;;;;;;9.68;6.63;;;15.70;73.70;;;;;;9175259;19;20103;-68
2023/08/30 01:06:08;;;;;;;8.13;6.18;;;15.70;73.70;;;;;;9176584;19;20030;-65
2023/08/30 01:09:15;;;;;;;11.73;6.65;;;15.70;73.80;;;;;;9176414;19;20014;-65
2023/08/30 01:12:26;;;;;;;12.88;6.53;;;15.60;73.80;;;;;;9175232;19;20022;-66
2023/08/30 01:15:37;;;;;;;13.50;6.90;;;15.50;73.80;;;;;;9175720;19;20043;-64
2023/08/30 01:18:44;;;;;;;10.27;6.93;;;15.50;73.90;;;;;;9176251;19;20539;-65
2023/08/30 01:21:59;;;;;;;12.13;6.88;;;15.50;74.50;;;;;;9175807;19;20384;-65
2023/08/30 01:25:17;;;;;;;12.10;7.25;;;15.40;74.00;;;;;;9174115;19;20018;-64
2023/08/30 01:28:28;;;;;;;11.15;7.30;;;15.40;74.10;;;;;;9169046;19;20535;-66
2023/08/30 01:31:38;;;;;;;14.48;6.80;;;15.30;74.10;;;;;;9175548;19;20050;-67
2023/08/30 01:34:46;;;;;;;11.90;6.85;;;15.30;74.10;;;;;;9175171;19;20360;-66
2023/08/30 01:37:54;;;;;;;14.82;7.20;;;15.20;74.20;;;;;;9174601;19;20018;-65
2023/08/30 01:41:02;;;;;;;12.20;6.50;;;15.20;74.20;;;;;;9176391;19;20022;-66
2023/08/30 01:44:15;;;;;;;11.98;6.50;;;15.20;74.30;;;;;;9179623;19;20022;-67
2023/08/30 01:47:22;;;;;;;11.73;6.90;;;15.20;74.40;;;;;;9183794;19;20022;-65
2023/08/30 01:50:30;;;;;;;10.15;6.65;;;15.10;74.40;;;;;;9183624;19;20653;-69
2023/08/30 01:53:35;;;;;;;9.77;6.63;;;15.10;74.40;;;;;;9178021;19;20483;-65
2023/08/30 01:56:42;;;;;;;12.95;7.25;;;15.10;74.50;;;;;;9181919;19;20019;-68
2023/08/30 01:59:52;;;;;;;15.57;6.95;;;15.10;74.50;;;;;;9181527;19;20025;-65
2023/08/30 02:03:00;;;;;;;11.95;7.20;;;15.00;74.50;;;;;;9181477;19;20026;-66
2023/08/30 02:06:10;;;;;;;10.00;6.38;;;15.00;74.50;;;;;;9180917;19;20461;-65
2023/08/30 02:09:23;;;;;;;12.95;6.90;;;15.00;74.60;;;;;;9183486;19;20022;-66
2023/08/30 02:12:33;;;;;;;11.68;7.10;;;14.90;74.60;;;;;;9182576;19;20104;-65
2023/08/30 02:15:45;;;;;;;12.23;7.95;;;14.90;74.70;;;;;;9183161;19;20026;-66
2023/08/30 02:18:52;;;;;;;12.98;8.05;;;14.90;74.80;;;;;;9182602;19;20482;-66
2023/08/30 02:21:59;;;;;;;13.20;7.75;;;14.90;74.80;;;;;;9180297;19;20656;-65
2023/08/30 02:25:06;;;;;;;13.35;7.72;;;14.80;74.80;;;;;;9177990;19;20097;-66
2023/08/30 02:28:13;;;;;;;12.93;8.57;;;14.80;74.80;;;;;;9178255;19;20372;-65
2023/08/30 02:31:21;;;;;;;15.07;8.77;;;14.80;74.90;;;;;;9182719;19;20022;-65
2023/08/30 02:34:29;;;;;;;15.90;9.27;;;14.80;75.10;;;;;;9178638;19;20011;-65
2023/08/30 02:37:34;;;;;;;19.73;9.63;;;14.80;75.10;;;;;;9182201;19;20018;-65
2023/08/30 02:40:41;;;;;;;14.63;9.48;;;14.80;75.20;;;;;;9182901;19;20029;-66
2023/08/30 02:43:46;;;;;;;15.55;10.32;;;14.80;75.30;;;;;;9180579;19;20399;-66
2023/08/30 02:46:56;;;;;;;17.27;9.35;;;14.80;75.30;;;;;;9182038;19;20023;-68
2023/08/30 02:50:02;;;;;;;17.17;9.73;;;14.80;75.50;;;;;;9179334;19;20014;-67
2023/08/30 02:53:10;;;;;;;21.15;11.45;;;14.80;75.50;;;;;;9180546;19;20021;-65
2023/08/30 02:56:15;;;;;;;15.88;10.32;;;14.80;75.50;;;;;;9180866;19;20100;-67
2023/08/30 02:59:23;;;;;;;13.70;9.75;;;14.80;75.60;;;;;;9179608;19;20011;-65
2023/08/30 03:02:31;;;;;;;14.95;10.30;;;14.80;75.60;;;;;;9181610;19;20017;-67
2023/08/30 03:05:38;;;;;;;15.25;10.15;;;14.80;75.80;;;;;;9180417;19;20343;-66
2023/08/30 03:08:44;;;;;;;15.00;10.30;;;14.80;75.70;;;;;;9181166;19;20022;-68
2023/08/30 03:11:51;;;;;;;13.82;9.68;;;14.80;75.80;;;;;;9179846;19;20022;-67
2023/08/30 03:14:57;;;;;;;18.13;10.32;;;14.80;75.80;;;;;;9177052;19;20009;-66
2023/08/30 03:18:07;;;;;;;16.42;10.98;;;14.80;75.80;;;;;;9178440;19;20021;-67
2023/08/30 03:21:13;;;;;;;16.33;10.48;;;14.80;75.90;;;;;;9178167;19;20056;-65
2023/08/30 03:24:20;;;;;;;13.65;9.80;;;14.80;75.90;;;;;;9180697;19;20007;-65
2023/08/30 03:27:26;;;;;;;17.55;10.05;;;14.90;76.00;;;;;;9175997;19;20006;-65
2023/08/30 03:30:33;;;;;;;15.20;9.45;;;14.90;76.00;;;;;;9179841;19;20564;-66
2023/08/30 03:33:41;;;;;;;16.95;8.80;;;14.90;76.00;;;;;;9179615;19;20052;-66
2023/08/30 03:36:54;;;;;;;13.55;9.38;;;14.90;76.10;;;;;;9178061;19;20021;-64
2023/08/30 03:39:59;;;;;;;15.35;9.63;;;14.90;76.00;;;;;;9179372;19;20014;-66
2023/08/30 03:43:06;;;;;;;14.32;8.93;;;14.90;76.00;;;;;;9179636;19;20029;-67
2023/08/30 03:46:12;;;;;;;12.35;8.55;;;14.90;75.90;;;;;;9178048;19;20435;-67
2023/08/30 03:49:22;;;;;;;15.15;9.15;;;14.90;75.90;;;;;;9177384;19;20015;-68
2023/08/30 03:52:27;;;;;;;15.00;9.52;;;14.90;75.90;;;;;;9177273;19;20015;-66
2023/08/30 03:55:35;;;;;;;14.48;8.95;;;14.90;75.80;;;;;;9176217;19;20011;-64
2023/08/30 03:58:40;;;;;;;11.95;8.35;;;14.90;75.80;;;;;;9177049;19;20095;-67
2023/08/30 04:01:48;;;;;;;13.32;7.80;;;14.80;75.80;;;;;;9178587;19;20017;-66
2023/08/30 04:04:55;;;;;;;16.65;8.73;;;14.80;75.80;;;;;;9176749;19;20019;-65
2023/08/30 04:08:04;;;;;;;14.07;8.20;;;14.80;75.80;;;;;;9177834;19;20015;-66
2023/08/30 04:11:09;;;;;;;12.30;8.60;;;14.80;75.80;;;;;;9176765;19;20014;-64
2023/08/30 04:14:16;;;;;;;13.20;8.85;;;14.80;75.80;;;;;;9175902;19;20030;-66
2023/08/30 04:17:22;;;;;;;14.88;9.07;;;14.70;76.60;;;;;;9176231;19;20400;-67
2023/08/30 04:20:32;;;;;;;14.05;8.75;;;14.70;75.90;;;;;;9177885;19;20022;-65
2023/08/30 04:23:37;;;;;;;11.32;7.80;;;14.70;76.10;;;;;;9177746;19;20011;-64
2023/08/30 04:26:44;;;;;;;13.85;8.63;;;14.60;76.10;;;;;;9171196;19;20006;-65
2023/08/30 04:29:50;;;;;;;14.77;9.35;;;14.70;76.10;;;;;;9178012;19;20048;-67
2023/08/30 04:32:57;;;;;;;15.70;8.95;;;14.60;76.00;;;;;;9176619;19;20018;-67
2023/08/30 04:36:05;;;;;;;14.43;8.73;;;14.70;76.20;;;;;;9173517;19;20611;-68
2023/08/30 04:39:13;;;;;;;16.67;8.95;;;14.70;76.30;;;;;;9176807;19;20823;-65
2023/08/30 04:42:19;;;;;;;15.80;9.48;;;14.60;76.20;;;;;;9175569;19;20018;-66
2023/08/30 04:45:27;;;;;;;16.15;9.73;;;14.60;76.40;;;;;;9176619;19;20033;-67
2023/08/30 04:48:32;;;;;;;16.05;9.32;;;14.60;76.40;;;;;;9175179;19;20334;-67
2023/08/30 04:51:42;;;;;;;14.88;9.55;;;14.60;76.40;;;;;;9177395;19;20019;-66
2023/08/30 04:54:48;;;;;;;15.20;10.23;;;14.60;76.40;;;;;;9175779;19;20011;-65
2023/08/30 04:57:56;;;;;;;23.63;12.23;;;14.60;76.50;;;;;;9175005;19;20022;-65
2023/08/30 05:01:02;;;;;;;16.05;9.23;;;14.60;76.50;;;;;;9174036;19;20467;-65
2023/08/30 05:04:10;;;;;;;17.25;10.10;;;14.60;76.50;;;;;;9174170;19;20016;-65
2023/08/30 05:07:18;;;;;;;18.20;9.52;;;14.60;76.50;;;;;;9176438;19;20479;-65
2023/08/30 05:10:26;;;;;;;18.33;10.48;;;14.60;76.60;;;;;;9174569;19;20029;-65
2023/08/30 05:13:32;;;;;;;18.65;9.00;;;14.70;76.70;;;;;;9172060;19;20262;-66
2023/08/30 05:16:39;;;;;;;15.55;10.30;;;14.60;76.60;;;;;;9172302;19;20014;-65
2023/08/30 05:19:45;;;;;;;17.75;10.55;;;14.70;76.70;;;;;;9180972;19;20051;-65
2023/08/30 05:22:56;;;;;;;19.20;10.50;;;14.70;76.70;;;;;;9183563;19;20014;-67
2023/08/30 05:26:02;;;;;;;15.05;9.57;;;14.70;76.70;;;;;;9180116;19;20805;-65
2023/08/30 05:29:09;;;;;;;13.88;9.32;;;14.70;76.70;;;;;;9183440;19;20026;-67
2023/08/30 05:32:14;;;;;;;14.77;10.52;;;14.60;76.70;;;;;;9184130;19;20018;-65
2023/08/30 05:35:41;;;;;;;15.93;10.20;;;14.70;76.70;;;;;;9180784;19;20472;-66
2023/08/30 05:39:09;;;;;;;18.90;11.55;;;14.60;76.70;;;;;;9184589;19;20014;-65
2023/08/30 05:42:22;;;;;;;18.50;10.25;;;14.60;76.70;;;;;;9181960;19;20022;-66
2023/08/30 05:45:28;;;;;;;17.15;10.80;;;14.60;76.70;;;;;;9181960;19;20619;-66
2023/08/30 05:48:35;;;;;;;15.48;10.85;;;14.60;76.80;;;;;;9180633;19;20022;-67
2023/08/30 05:51:41;;;;;;;23.75;10.35;;;14.60;76.80;;;;;;9184145;19;20021;-65
2023/08/30 05:54:50;;;;;;;16.13;9.82;;;14.60;76.80;;;;;;9182981;19;20022;-67
2023/08/30 05:57:56;;;;;;;15.88;10.40;;;14.60;76.90;;;;;;9182038;19;20011;-65
2023/08/30 06:01:03;;;;;;;20.20;11.10;;;14.60;76.90;;;;;;9182306;19;20559;-65
2023/08/30 06:04:09;;;;;;;17.50;10.25;;;14.60;76.90;;;;;;9182158;19;20476;-65
2023/08/30 06:07:17;;;;;;;17.05;11.73;;;14.60;77.00;;;;;;9182849;19;20019;-66
2023/08/30 06:10:25;;;;;;;19.08;10.98;;;14.60;76.90;;;;;;9182425;19;20018;-66
2023/08/30 06:13:33;;;;;;;18.17;11.02;;;14.70;77.10;;;;;;9183174;19;20018;-68
2023/08/30 06:16:38;;;;;;;17.83;10.98;;;14.70;77.10;;;;;;9180525;19;20499;-66
2023/08/30 06:19:45;;;;;;;21.30;11.52;;;14.80;77.20;;;;;;9182200;19;20471;-66
2023/08/30 06:22:51;;;;;;;15.65;10.85;;;14.90;77.20;;;;;;9174563;19;20837;-69
2023/08/30 06:26:02;;;;;;;16.27;10.55;;;15.00;77.20;;;;;;9163124;19;20015;-68
2023/08/30 06:29:08;;;;;;;17.73;11.05;;;15.10;77.40;;;;;;9164594;19;20018;-70
2023/08/30 06:32:15;;;;;;;17.42;10.75;;;15.20;77.40;;;;;;9162790;19;20022;-67
2023/08/30 06:35:21;;;;;;;24.40;11.45;;;15.30;77.30;;;;;;9161408;19;20038;-71
2023/08/30 06:38:28;;;;;;;15.63;10.80;;;15.40;78.00;;;;;;9173764;19;20021;-68
2023/08/30 06:41:39;;;;;;;20.15;11.15;;;15.50;77.50;;;;;;9178156;19;20577;-67
2023/08/30 06:44:50;;;;;;;17.25;10.90;;;15.70;77.50;;;;;;9179185;19;20955;-65
2023/08/30 06:47:56;;;;;;;17.95;10.57;;;15.80;77.30;;;;;;9170372;19;20530;-72
2023/08/30 06:51:03;;;;;;;18.00;11.35;;;16.00;77.30;;;;;;9171225;19;20018;-69
2023/08/30 06:54:09;;;;;;;18.52;10.52;;;16.20;77.30;;;;;;9173465;19;20101;-69
2023/08/30 06:57:21;;;;;;;16.48;10.65;;;16.30;77.20;;;;;;9179228;19;20023;-71
2023/08/30 07:00:28;;;;;;;23.52;10.80;;;16.50;77.30;;;;;;9181399;19;20020;-70
2023/08/30 07:03:36;;;;;;;18.35;10.68;;;16.60;77.10;;;;;;9181727;19;20024;-71
2023/08/30 07:06:42;;;;;;;22.33;10.65;;;16.80;77.00;;;;;;9179388;19;20110;-71
2023/08/30 07:09:50;;;;;;;20.17;10.43;;;16.90;76.80;;;;;;9180882;19;20029;-70
2023/08/30 07:12:58;;;;;;;20.27;10.48;;;17.00;76.60;;;;;;9179850;19;20026;-69
2023/08/30 07:16:07;;;;;;;13.98;9.65;;;17.20;76.70;;;;;;9179392;19;20333;-71
2023/08/30 07:19:15;;;;;;;20.13;9.45;;;17.30;76.40;;;;;;9178070;19;20017;-71
2023/08/30 07:22:25;;;;;;;19.20;9.55;;;17.50;76.40;;;;;;9180686;19;20019;-71
2023/08/30 07:25:33;;;;;;;15.60;8.90;;;17.70;76.30;;;;;;9179792;19;20026;-71
2023/08/30 07:28:43;;;;;;;20.65;9.13;;;17.80;76.10;;;;;;9174297;19;20018;-70
2023/08/30 07:31:51;;;;;;;13.75;8.77;;;17.90;75.90;;;;;;9179563;19;20018;-69
2023/08/30 07:34:58;;;;;;;12.25;7.85;;;18.00;75.60;;;;;;9179183;19;20172;-69
2023/08/30 07:38:03;;;;;;;14.07;8.40;;;18.10;75.40;;;;;;9177536;19;20022;-68
2023/08/30 07:41:11;;;;;;;17.70;9.32;;;18.20;75.30;;;;;;9174718;19;20504;-67
2023/08/30 07:44:20;;;;;;;12.32;8.57;;;18.20;75.00;;;;;;9171829;19;20025;-67
2023/08/30 07:47:27;;;;;;;13.35;8.25;;;18.30;79.80;;;;;;9169901;19;20041;-67
2023/08/30 07:50:32;;;;;;;13.43;8.10;;;18.20;74.70;;;;;;9171551;19;20022;-67
2023/08/30 07:53:40;;;;;;;13.98;8.13;;;18.20;74.50;;;;;;9168845;19;20014;-66
2023/08/30 07:56:45;;;;;;;14.93;8.88;;;18.20;74.50;;;;;;9169981;19;20014;-67
2023/08/30 07:59:55;;;;;;;14.65;8.20;;;18.20;74.50;;;;;;9170985;19;20464;-69
2023/08/30 08:03:01;;;;;;;13.27;8.13;;;18.10;74.40;;;;;;9172184;19;20060;-69
2023/08/30 08:06:08;;;;;;;13.70;8.68;;;18.00;74.30;;;;;;9173932;19;20010;-67
2023/08/30 08:09:15;;;;;;;18.45;10.05;;;18.10;74.40;;;;;;9169415;19;20026;-68
2023/08/30 08:12:22;;;;;;;18.45;9.13;;;18.00;74.30;;;;;;9173451;19;20011;-70
2023/08/30 08:15:32;;;;;;;13.65;8.93;;;18.00;74.40;;;;;;9174980;19;20033;-72
2023/08/30 08:18:39;;;;;;;18.27;9.77;;;18.00;74.40;;;;;;9172525;19;20030;-68
2023/08/30 08:21:45;;;;;;;17.25;9.73;;;18.00;74.40;;;;;;9172396;19;20533;-69
2023/08/30 08:24:53;;;;;;;16.77;9.13;;;18.00;74.50;;;;;;9172987;19;20018;-69
2023/08/30 08:27:59;;;;;;;19.77;10.75;;;18.00;74.50;;;;;;9172565;19;21785;-69
2023/08/30 08:31:10;;;;;;;13.95;8.52;;;18.00;74.40;;;;;;9172933;19;20022;-68
2023/08/30 08:34:16;;;;;;;16.08;8.52;;;18.10;74.30;;;;;;9168677;19;20480;-68
2023/08/30 08:37:23;;;;;;;16.73;9.07;;;18.00;74.30;;;;;;9167398;19;20567;-68
2023/08/30 08:40:28;;;;;;;17.35;8.90;;;18.00;74.30;;;;;;9163659;19;20022;-70
2023/08/30 08:43:49;;;;;;;16.67;8.98;;;18.00;74.30;;;;;;9163032;19;20022;-73
2023/08/30 08:46:57;;;;;;;19.08;8.82;;;18.00;74.30;;;;;;9170244;19;20019;-68
2023/08/30 08:50:05;;;;;;;22.10;10.52;;;18.00;74.40;;;;;;9169765;19;20483;-72
2023/08/30 08:53:11;;;;;;;19.83;9.43;;;17.90;74.40;;;;;;9176143;19;20701;-68
2023/08/30 08:56:20;;;;;;;17.67;9.27;;;17.90;74.40;;;;;;9179023;19;20014;-67
2023/08/30 08:59:27;;;;;;;15.27;9.43;;;17.90;74.50;;;;;;9181597;19;20018;-67
2023/08/30 09:02:39;;;;;;;14.05;8.88;;;17.90;74.60;;;;;;9177055;19;20010;-69
2023/08/30 09:05:46;;;;;;;18.30;9.48;;;17.90;74.70;;;;;;9173718;19;20010;-68
2023/08/30 09:08:53;;;;;;;16.30;9.85;;;17.80;74.80;;;;;;9180017;19;20546;-68
2023/08/30 09:11:59;;;;;;;14.52;10.20;;;17.80;75.00;;;;;;9180376;19;20487;-69
2023/08/30 09:15:07;;;;;;;15.30;9.23;;;17.70;75.10;;;;;;9176150;19;20548;-68
2023/08/30 09:18:20;;;;;;;19.00;10.90;;;17.70;75.10;;;;;;9173631;19;20021;-68
2023/08/30 09:21:28;;;;;;;18.02;9.35;;;17.70;75.40;;;;;;9175656;19;20010;-68
2023/08/30 09:24:41;;;;;;;14.75;8.68;;;17.60;75.40;;;;;;9173996;19;20011;-70
2023/08/30 09:27:52;;;;;;;15.63;9.05;;;17.60;75.50;;;;;;9171180;19;20021;-68
2023/08/30 09:30:59;;;;;;;15.63;9.00;;;17.50;75.50;;;;;;9181281;19;20082;-68
2023/08/30 09:34:27;;;;;;;20.75;10.73;;;17.50;75.70;;;;;;9176632;19;20010;-68
2023/08/30 09:37:33;;;;;;;14.57;9.10;;;17.40;75.80;;;;;;9174213;19;20022;-68
2023/08/30 09:40:40;;;;;;;15.55;9.95;;;17.40;75.70;;;;;;9176792;19;20368;-68
2023/08/30 09:43:47;;;;;;;16.13;9.88;;;17.40;75.80;;;;;;9174131;19;20010;-68
2023/08/30 09:47:06;;;;;;;15.00;9.48;;;17.30;76.00;;;;;;9180847;19;20026;-67
2023/08/30 09:50:14;;;;;;;19.35;9.90;;;17.30;76.10;;;;;;9175753;19;20023;-67
2023/08/30 09:53:27;;;;;;;16.70;10.30;;;17.30;76.30;;;;;;9172509;19;21755;-70
2023/08/30 09:56:35;;;;;;;18.58;9.68;;;17.20;76.30;;;;;;9182847;19;20022;-67
2023/08/30 09:59:44;;;;;;;20.65;10.50;;;17.20;76.40;;;;;;9180725;19;20015;-68
2023/08/30 10:02:50;;;;;;;18.58;11.20;;;17.20;76.50;;;;;;9180532;19;20395;-69
2023/08/30 10:06:21;;;;;;;20.05;11.32;;;17.10;76.60;;;;;;9167361;19;20015;-69
2023/08/30 10:09:27;;;;;;;22.55;12.10;;;17.20;76.90;;;;;;9172866;19;20359;-66
2023/08/30 10:12:35;;;;;;;18.13;12.55;;;17.10;76.90;;;;;;9172076;19;20017;-68
2023/08/30 10:15:48;;;;;;;16.85;11.30;;;17.10;77.10;;;;;;9173926;19;20025;-69
2023/08/30 10:19:02;;;;;;;20.60;11.80;;;17.10;77.30;;;;;;9169369;19;20018;-69
2023/08/30 10:22:31;;;;;;;23.98;12.35;;;17.10;77.30;;;;;;9179541;19;20357;-68
2023/08/30 10:25:39;;;;;;;19.33;11.10;;;17.20;77.40;;;;;;9175218;19;20021;-67
2023/08/30 10:28:45;;;;;;;20.67;12.25;;;17.20;77.40;;;;;;9174898;19;20022;-70
2023/08/30 10:31:52;;;;;;;20.75;11.63;;;17.10;77.40;;;;;;9175765;19;20023;-68
2023/08/30 10:34:58;;;;;;;21.73;12.10;;;17.20;77.40;;;;;;9175007;19;20030;-69
2023/08/30 10:38:08;;;;;;;17.02;10.98;;;17.20;77.50;;;;;;9171537;19;20891;-70
2023/08/30 10:41:13;;;;;;;18.45;11.85;;;17.10;77.60;;;;;;9172439;19;20479;-68
2023/08/30 10:44:21;;;;;;;19.10;11.50;;;17.10;77.50;;;;;;9174884;19;20029;-67
2023/08/30 10:47:28;;;;;;;16.33;12.38;;;17.10;77.70;;;;;;9172957;19;20025;-68
2023/08/30 10:50:36;;;;;;;20.58;11.25;;;17.10;77.90;;;;;;9170945;19;20010;-70
2023/08/30 10:53:44;;;;;;;14.05;10.25;;;17.10;77.90;;;;;;9177340;19;20018;-68
2023/08/30 10:56:59;;;;;;;14.68;10.50;;;17.00;77.90;;;;;;9177620;19;20054;-68
2023/08/30 11:00:10;;;;;;;21.27;10.63;;;17.00;78.00;;;;;;9173296;19;20090;-70
2023/08/30 11:03:17;;;;;;;14.18;10.55;;;17.00;78.00;;;;;;9173622;19;20033;-69
2023/08/30 11:06:23;;;;;;;17.52;10.40;;;16.90;78.00;;;;;;9171864;19;20024;-68
2023/08/30 11:09:33;;;;;;;16.27;9.68;;;16.90;78.20;;;;;;9172851;19;20018;-69
2023/08/30 11:12:39;;;;;;;12.68;9.10;;;16.90;78.70;;;;;;9171323;19;20027;-68
2023/08/30 11:15:46;;;;;;;10.25;8.02;;;16.90;78.40;;;;;;9171440;19;20026;-69
2023/08/30 11:18:52;;;;;;;13.48;8.65;;;16.80;78.40;;;;;;9176502;19;20477;-68
2023/08/30 11:21:59;;;;;;;13.00;8.85;;;16.80;78.60;;;;;;9171905;19;20017;-69
2023/08/30 11:25:08;;;;;;;11.65;7.43;;;16.80;78.60;;;;;;9172265;19;20484;-70
2023/08/30 11:28:15;;;;;;;10.85;7.88;;;16.80;78.70;;;;;;9166928;19;20123;-69
2023/08/30 11:31:22;;;;;;;9.05;6.53;;;16.80;78.70;;;;;;9169144;19;20488;-71
2023/08/30 11:34:30;;;;;;;10.50;7.57;;;16.80;78.80;;;;;;9171991;19;21358;-68
2023/08/30 11:37:35;;;;;;;10.10;7.38;;;16.70;78.90;;;;;;9172887;19;20015;-69
2023/08/30 11:40:46;;;;;;;14.35;7.70;;;16.70;78.90;;;;;;9175525;19;20514;-70
2023/08/30 11:43:52;;;;;;;14.57;7.90;;;16.70;79.10;;;;;;9176945;19;20010;-69
2023/08/30 11:47:02;;;;;;;11.75;7.82;;;16.70;79.10;;;;;;9168821;19;20014;-71
2023/08/30 11:50:10;;;;;;;13.05;8.98;;;16.70;79.30;;;;;;9172480;19;20019;-70
2023/08/30 11:53:18;;;;;;;9.63;7.38;;;16.70;79.40;;;;;;9173906;19;20014;-70
2023/08/30 11:56:26;;;;;;;10.95;7.35;;;16.70;79.30;;;;;;9175859;19;20683;-70
2023/08/30 11:59:37;;;;;;;10.02;7.15;;;16.70;79.50;;;;;;9174930;19;20018;-68
2023/08/30 12:02:44;;;;;;;14.38;7.28;;;16.70;79.60;;;;;;9176611;19;20576;-68
2023/08/30 12:05:53;;;;;;;10.57;7.03;;;16.70;79.60;;;;;;9176551;19;20022;-69
2023/08/30 12:09:01;;;;;;;11.00;7.65;;;16.70;79.60;;;;;;9175737;19;20022;-69
2023/08/30 12:12:12;;;;;;;12.50;7.60;;;16.70;79.70;;;;;;9174254;19;20018;-69
2023/08/30 12:15:18;;;;;;;13.32;7.60;;;16.70;79.90;;;;;;9173423;19;20022;-67
2023/08/30 12:18:27;;;;;;;10.10;7.45;;;16.70;79.80;;;;;;9167484;19;20010;-67
2023/08/30 12:21:42;;;;;;;18.15;7.78;;;16.70;79.90;;;;;;9170015;19;20026;-69
2023/08/30 12:24:50;;;;;;;;;;;16.80;80.20;;;;;;9172018;19;20021;-71
2023/08/30 12:27:58;;;;;;;11.55;8.10;;;16.80;79.80;;;;;;9165823;19;19934;-72
2023/08/30 12:31:06;;;;;;;14.95;9.02;;;16.80;80.00;;;;;;9172933;19;20025;-69
2023/08/30 12:34:12;;;;;;;13.10;9.45;;;16.90;80.20;;;;;;9171239;19;20018;-71
2023/08/30 12:37:19;;;;;;;11.13;8.60;;;16.90;80.40;;;;;;9173024;19;20014;-70
2023/08/30 12:40:24;;;;;;;11.68;8.88;;;17.00;80.60;;;;;;9170850;19;20037;-67
2023/08/30 12:43:35;;;;;;;14.10;10.35;;;17.10;80.70;;;;;;9170331;19;20021;-67
2023/08/30 12:46:40;;;;;;;18.20;11.48;;;17.20;80.80;;;;;;9170629;19;20025;-68
2023/08/30 12:49:47;;;;;;;14.73;10.60;;;17.30;80.90;;;;;;9169232;19;20381;-68
2023/08/30 12:52:56;;;;;;;14.18;9.95;;;17.40;80.80;;;;;;9169549;19;20460;-69
2023/08/30 12:56:04;;;;;;;13.55;9.35;;;17.50;80.80;;;;;;9171972;19;20017;-68
2023/08/30 12:59:12;;;;;;;11.20;9.05;;;17.60;80.70;;;;;;9172862;19;20095;-70
2023/08/30 13:02:19;;;;;;;14.35;9.73;;;17.70;80.70;;;;;;9171520;19;20010;-70
2023/08/30 13:05:25;;;;;;;13.25;9.07;;;17.70;80.50;;;;;;9168734;19;20114;-68
2023/08/30 13:08:33;;;;;;;13.68;9.35;;;17.80;80.50;;;;;;9168610;19;20014;-70
2023/08/30 13:11:39;;;;;;;13.00;9.57;;;17.90;80.50;;;;;;9165543;19;20015;-69
2023/08/30 13:14:48;;;;;;;12.93;10.15;;;17.90;80.50;;;;;;9165827;19;20018;-68
2023/08/30 13:17:54;;;;;;;13.30;9.80;;;18.00;80.60;;;;;;9167772;19;20015;-69
2023/08/30 13:21:04;;;;;;;13.75;9.85;;;18.00;80.60;;;;;;9159901;19;20479;-69
2023/08/30 13:24:09;;;;;;;10.57;7.43;;;18.10;80.70;;;;;;9167093;19;20018;-68
2023/08/30 13:27:17;;;;;;;10.07;7.53;;;18.20;80.60;;;;;;9160647;19;20075;-69
2023/08/30 13:30:27;;;;;;;11.98;7.45;;;18.30;80.50;;;;;;9164023;19;20110;-69
2023/08/30 13:33:32;;;;;;;11.35;7.75;;;18.40;80.50;;;;;;9161286;19;20019;-69
2023/08/30 13:36:39;;;;;;;13.48;7.72;;;18.50;80.60;;;;;;9161528;19;20025;-70
2023/08/30 13:39:47;;;;;;;9.82;7.55;;;18.60;80.50;;;;;;9164661;19;20014;-70
2023/08/30 13:42:52;;;;;;;13.80;8.13;;;18.70;80.40;;;;;;9173932;19;20043;-71
2023/08/30 13:46:04;;;;;;;12.10;6.35;;;18.80;80.40;;;;;;9176282;19;20015;-69
2023/08/30 13:49:11;;;;;;;8.68;5.65;;;18.90;80.10;;;;;;9175059;19;20018;-70
2023/08/30 13:52:17;;;;;;;6.65;4.43;;;19.00;79.80;;;;;;9172673;19;20022;-69
2023/08/30 13:55:25;;;;;;;11.05;4.22;;;19.10;79.70;;;;;;9177556;19;20094;-70
2023/08/30 13:58:30;;;;;;;9.43;3.10;;;19.20;79.60;;;;;;9178610;19;20024;-70
2023/08/30 14:01:41;;;;;;;7.18;2.20;;;19.30;79.40;;;;;;9175260;19;20044;-71
2023/08/30 14:04:46;;;;;;;8.82;3.15;;;19.50;78.90;;;;;;9177262;19;20051;-68
2023/08/30 14:07:54;;;;;;;7.57;2.65;;;19.50;78.50;;;;;;9176119;19;20010;-69
2023/08/30 14:11:00;;;;;;;7.20;2.45;;;19.60;78.10;;;;;;9178506;19;20014;-70
2023/08/30 14:14:08;;;;;;;5.30;2.05;;;19.70;77.80;;;;;;9165419;19;20015;-69
2023/08/30 14:17:16;;;;;;;4.60;2.05;;;19.80;78.20;;;;;;9177582;19;20475;-69
2023/08/30 14:20:24;;;;;;;7.20;2.33;;;19.90;77.30;;;;;;9173297;19;20006;-69
2023/08/30 14:23:30;;;;;;;6.95;2.35;;;20.00;78.10;;;;;;9179544;19;20018;-69
2023/08/30 14:26:38;;;;;;;9.27;2.15;;;20.00;76.20;;;;;;9174880;19;20019;-68
2023/08/30 14:29:44;;;;;;;8.63;2.47;;;20.10;76.60;;;;;;9177788;19;20484;-70
2023/08/30 14:32:54;;;;;;;4.65;2.13;;;20.20;76.30;;;;;;9176536;19;20054;-69
2023/08/30 14:36:01;;;;;;;7.57;3.08;;;20.30;76.00;;;;;;9174017;19;20035;-69
2023/08/30 14:39:09;;;;;;;7.50;2.10;;;20.30;76.00;;;;;;9178957;19;20015;-69
2023/08/30 14:42:14;;;;;;;2.70;1.42;;;20.40;75.70;;;;;;9179624;19;20916;-70
2023/08/30 14:45:22;;;;;;;6.30;2.22;;;20.40;75.40;;;;;;9179300;19;20021;-69
2023/08/30 14:48:31;;;;;;;5.10;1.73;;;20.50;75.20;;;;;;9177972;19;20048;-67
2023/08/30 14:51:39;;;;;;;6.32;2.20;;;20.50;74.70;;;;;;9176641;19;20033;-70
2023/08/30 14:54:45;;;;;;;8.43;2.53;;;20.60;74.60;;;;;;9175382;19;20018;-68
2023/08/30 14:57:52;;;;;;;16.15;2.72;;;20.60;74.40;;;;;;9179430;19;20041;-68
2023/08/30 15:00:58;;;;;;;9.13;2.20;;;20.60;74.30;;;;;;9177144;19;20018;-68
2023/08/30 15:04:08;;;;;;;9.77;2.65;;;20.60;74.10;;;;;;9178408;19;20026;-70
2023/08/30 15:07:14;;;;;;;9.02;2.45;;;20.60;74.00;;;;;;9175037;19;20488;-70
2023/08/30 15:10:21;;;;;;;6.95;2.97;;;20.60;73.90;;;;;;9172046;19;20025;-67
2023/08/30 15:13:26;;;;;;;6.18;2.15;;;20.60;73.80;;;;;;9171004;19;20097;-67
2023/08/30 15:16:34;;;;;;;8.13;2.40;;;20.60;73.70;;;;;;9175175;19;20464;-68
2023/08/30 15:19:42;;;;;;;9.73;2.55;;;20.70;74.20;;;;;;9171087;19;20022;-69
2023/08/30 15:22:49;;;;;;;8.38;2.20;;;20.70;73.40;;;;;;9173212;19;20045;-69
2023/08/30 15:25:54;;;;;;;6.18;2.33;;;20.60;73.20;;;;;;9167377;19;20024;-68
2023/08/30 15:29:02;;;;;;;8.20;2.30;;;20.70;73.10;;;;;;9168480;19;20360;-68
2023/08/30 15:32:07;;;;;;;7.25;1.77;;;20.60;72.80;;;;;;9170594;19;20029;-69
2023/08/30 15:35:17;;;;;;;10.30;2.20;;;20.60;72.70;;;;;;9169910;19;20015;-67
2023/08/30 15:38:26;;;;;;;10.85;3.65;;;20.50;72.50;;;;;;9170038;19;20028;-68
2023/08/30 15:41:33;;;;;;;7.25;2.05;;;20.60;72.60;;;;;;9168362;19;20399;-68
2023/08/30 15:44:39;;;;;;;8.52;2.45;;;20.50;72.60;;;;;;9170748;19;20023;-70
2023/08/30 15:47:47;;;;;;;6.95;2.20;;;20.50;72.60;;;;;;9166675;19;20022;-70
2023/08/30 15:50:58;;;;;;;7.32;2.15;;;20.60;75.80;;;;;;9166432;19;20047;-67
2023/08/30 15:54:06;;;;;;;7.65;2.13;;;20.50;72.60;;;;;;9171411;19;20014;-67
2023/08/30 15:57:11;;;;;;;6.55;1.88;;;20.50;72.60;;;;;;9170850;19;20656;-72
2023/08/30 16:00:19;;;;;;;10.88;1.90;;;20.50;72.20;;;;;;9169946;19;20018;-69
2023/08/30 16:03:24;;;;;;;10.90;1.73;;;20.40;72.10;;;;;;9168473;19;20019;-69